Time;durP1;ratioP1;P1;durP2;ratioP2;P2;SDS_P1;SDS_P2;PMS_P1;PMS_P2;Temp;Humidity;BMP_temperature;BMP_pressure;BME280_temperature;BME280_humidity;BME280_pressure;Samples;Min_cycle;Max_cycle;Signal;HPM_P1;HPM_P2
2022/07/04 00:00:29;;;;;;;3.45;2.50;;;12.60;99.90;;;;;;5054717;28;20052;-77
2022/07/04 00:02:55;;;;;;;3.13;2.10;;;12.60;99.90;;;;;;5072540;28;20050;-77
2022/07/04 00:05:21;;;;;;;3.17;2.20;;;12.60;99.90;;;;;;5071046;28;20044;-76
2022/07/04 00:07:49;;;;;;;4.22;2.72;;;12.60;99.90;;;;;;5071394;28;20056;-77
2022/07/04 00:10:20;;;;;;;3.55;2.67;;;12.60;99.90;;;;;;5072320;28;20052;-77
2022/07/04 00:12:46;;;;;;;3.97;2.40;;;12.60;99.90;;;;;;5070957;28;20090;-77
2022/07/04 00:15:12;;;;;;;3.13;2.47;;;12.60;99.90;;;;;;5072087;28;20048;-77
2022/07/04 00:17:38;;;;;;;3.55;2.60;;;12.60;99.90;;;;;;5071806;28;20547;-77
2022/07/04 00:20:06;;;;;;;4.00;2.60;;;12.60;99.90;;;;;;5072096;28;20048;-76
2022/07/04 00:22:32;;;;;;;3.58;2.30;;;12.60;99.90;;;;;;5054551;28;20048;-77
2022/07/04 00:24:58;;;;;;;4.07;2.33;;;12.60;99.90;;;;;;5053983;28;20055;-77
2022/07/04 00:27:24;;;;;;;3.13;2.63;;;12.60;99.90;;;;;;5072139;28;20048;-77
2022/07/04 00:29:50;;;;;;;3.92;2.45;;;12.50;99.90;;;;;;5071058;28;20043;-77
2022/07/04 00:32:16;;;;;;;4.28;2.45;;;12.60;99.90;;;;;;5072046;28;20103;-76
2022/07/04 00:34:42;;;;;;;3.15;2.55;;;12.50;99.90;;;;;;5070709;28;20767;-77
2022/07/04 00:37:07;;;;;;;4.15;3.00;;;12.60;99.90;;;;;;5071726;28;20190;-77
2022/07/04 00:39:33;;;;;;;3.72;3.17;;;12.60;99.90;;;;;;5054218;28;20086;-77
2022/07/04 00:41:59;;;;;;;3.63;3.20;;;12.60;99.90;;;;;;5054035;28;20044;-77
2022/07/04 00:44:24;;;;;;;3.90;3.00;;;12.50;99.90;;;;;;5053977;28;20553;-77
2022/07/04 00:46:50;;;;;;;4.38;3.20;;;12.40;99.90;;;;;;5069988;28;20555;-77
2022/07/04 00:49:18;;;;;;;5.82;3.45;;;12.40;99.90;;;;;;5053626;28;20090;-77
2022/07/04 00:51:45;;;;;;;4.85;3.13;;;12.40;99.90;;;;;;5071660;28;20055;-77
2022/07/04 00:54:14;;;;;;;8.40;3.13;;;12.30;99.90;;;;;;5069781;28;20056;-76
2022/07/04 00:56:43;;;;;;;4.20;3.10;;;12.30;99.90;;;;;;5070406;28;20048;-76
2022/07/04 00:59:10;;;;;;;3.80;3.13;;;12.40;99.90;;;;;;5071026;28;20041;-77
2022/07/04 01:01:36;;;;;;;4.70;3.35;;;12.40;99.90;;;;;;5070086;28;20504;-77
2022/07/04 01:04:04;;;;;;;4.03;2.97;;;12.40;99.90;;;;;;5070396;28;20099;-76
2022/07/04 01:06:30;;;;;;;3.75;2.90;;;12.40;99.90;;;;;;5071456;28;20075;-76
2022/07/04 01:08:56;;;;;;;4.10;3.05;;;12.30;99.90;;;;;;5071396;28;20055;-77
2022/07/04 01:11:21;;;;;;;4.45;3.55;;;12.30;99.90;;;;;;5071298;28;20123;-76
2022/07/04 01:13:47;;;;;;;4.60;3.53;;;12.20;99.90;;;;;;5071117;28;20044;-76
2022/07/04 01:16:13;;;;;;;5.53;3.08;;;12.20;99.90;;;;;;5071358;28;20049;-77
2022/07/04 01:18:40;;;;;;;4.45;3.28;;;12.20;99.90;;;;;;5070976;28;20504;-77
2022/07/04 01:21:06;;;;;;;4.63;3.50;;;12.20;99.90;;;;;;5071323;28;20044;-76
2022/07/04 01:23:35;;;;;;;5.25;4.00;;;12.20;99.90;;;;;;5071251;28;20066;-77
2022/07/04 01:26:02;;;;;;;3.97;3.20;;;12.20;99.90;;;;;;5070129;28;20055;-77
2022/07/04 01:28:28;;;;;;;5.43;3.60;;;12.20;99.90;;;;;;5070685;28;20044;-77
2022/07/04 01:30:53;;;;;;;6.15;3.58;;;12.20;99.90;;;;;;5053300;28;20037;-76
2022/07/04 01:33:19;;;;;;;6.03;4.25;;;12.20;99.90;;;;;;5069911;28;20044;-77
2022/07/04 01:35:46;;;;;;;6.90;4.20;;;12.30;99.90;;;;;;5069815;28;20060;-76
2022/07/04 01:38:11;;;;;;;4.63;3.80;;;12.30;99.90;;;;;;5069887;28;20049;-76
2022/07/04 01:40:37;;;;;;;5.07;3.72;;;12.30;99.90;;;;;;5053223;28;20051;-76
2022/07/04 01:43:03;;;;;;;4.63;3.58;;;12.30;99.90;;;;;;5069751;28;20142;-75
2022/07/04 01:45:29;;;;;;;8.23;3.85;;;12.30;99.90;;;;;;5070914;28;20390;-76
2022/07/04 01:47:54;;;;;;;5.22;4.20;;;12.30;99.90;;;;;;5069688;28;20143;-76
2022/07/04 01:50:20;;;;;;;6.15;4.00;;;12.20;99.90;;;;;;5069965;28;20431;-77
2022/07/04 01:52:47;;;;;;;4.88;3.40;;;12.20;99.90;;;;;;5070659;28;20091;-77
2022/07/04 01:55:13;;;;;;;6.90;4.13;;;12.10;99.90;;;;;;5070834;28;20111;-76
2022/07/04 01:57:39;;;;;;;5.18;4.45;;;12.10;99.90;;;;;;5053066;28;20055;-77
2022/07/04 02:02:57;;;;;;;5.97;4.03;;;12.00;99.90;;;;;;5073795;28;20087;-76
2022/07/04 02:05:23;;;;;;;4.85;3.83;;;12.00;99.90;;;;;;5074747;28;20087;-76
2022/07/04 02:07:49;;;;;;;5.38;4.25;;;12.10;99.90;;;;;;5073425;28;20056;-76
2022/07/04 02:10:15;;;;;;;5.22;4.25;;;12.10;99.90;;;;;;5073437;28;20045;-76
2022/07/04 02:15:26;;;;;;;4.45;3.72;;;12.00;99.90;;;;;;5059015;28;20441;-76
2022/07/04 02:17:51;;;;;;;5.38;3.92;;;12.00;99.90;;;;;;5074498;28;20048;-77
2022/07/04 02:20:17;;;;;;;6.30;3.75;;;12.00;99.90;;;;;;5073125;28;20101;-77
2022/07/04 02:22:43;;;;;;;5.05;3.17;;;11.90;99.90;;;;;;5074436;28;20040;-76
2022/07/04 02:25:11;;;;;;;3.90;2.88;;;11.90;99.90;;;;;;5074328;28;20044;-77
2022/07/04 02:27:37;;;;;;;3.80;3.03;;;11.90;99.90;;;;;;5072995;28;20044;-76
2022/07/04 02:30:05;;;;;;;4.25;3.45;;;11.90;99.90;;;;;;5073732;28;20495;-76
2022/07/04 02:32:30;;;;;;;4.93;3.60;;;11.80;99.90;;;;;;5073077;28;20053;-76
2022/07/04 02:34:56;;;;;;;4.53;3.67;;;11.80;99.90;;;;;;5072833;28;20047;-76
2022/07/04 02:37:22;;;;;;;5.80;3.92;;;11.80;99.90;;;;;;5056345;28;20052;-76
2022/07/04 02:39:47;;;;;;;5.85;4.18;;;11.80;99.90;;;;;;5072756;28;20087;-76
2022/07/04 02:42:13;;;;;;;8.40;3.58;;;11.80;99.90;;;;;;5072943;28;20053;-77
2022/07/04 02:44:39;;;;;;;5.45;3.45;;;11.90;99.90;;;;;;5073871;28;20041;-76
2022/07/04 02:47:04;;;;;;;5.28;3.50;;;11.90;99.90;;;;;;5073839;28;20106;-76
2022/07/04 02:49:30;;;;;;;5.57;4.10;;;11.80;99.90;;;;;;5075439;28;20040;-77
2022/07/04 02:51:56;;;;;;;6.10;3.03;;;11.80;99.90;;;;;;5075261;28;20052;-77
2022/07/04 02:54:21;;;;;;;3.88;3.03;;;11.80;99.90;;;;;;5057784;28;20066;-76
2022/07/04 02:56:47;;;;;;;4.07;3.28;;;11.80;99.90;;;;;;5072638;28;20118;-77
2022/07/04 02:59:13;;;;;;;6.30;4.45;;;11.80;99.90;;;;;;5055620;28;20477;-76
2022/07/04 03:01:38;;;;;;;5.22;4.22;;;11.80;99.90;;;;;;5073544;28;20056;-78
2022/07/04 03:04:04;;;;;;;7.30;4.47;;;11.80;99.90;;;;;;5072539;28;20102;-78
2022/07/04 03:06:30;;;;;;;5.45;4.13;;;11.80;99.90;;;;;;5055889;28;20219;-76
2022/07/04 03:08:56;;;;;;;4.90;4.00;;;11.80;99.90;;;;;;5073501;28;20040;-76
2022/07/04 03:11:22;;;;;;;5.43;3.75;;;11.70;99.90;;;;;;5071319;28;20493;-76
2022/07/04 03:13:48;;;;;;;5.78;4.53;;;11.70;99.90;;;;;;5055722;28;20044;-77
2022/07/04 03:16:13;;;;;;;7.65;5.15;;;11.60;99.90;;;;;;5072124;28;20075;-76
2022/07/04 03:18:39;;;;;;;6.75;5.15;;;11.60;99.90;;;;;;5055709;28;20052;-78
2022/07/04 03:21:05;;;;;;;7.78;4.78;;;11.60;99.90;;;;;;5071830;28;20091;-76
2022/07/04 03:23:34;;;;;;;6.22;5.10;;;11.60;99.90;;;;;;5072191;28;20424;-77
2022/07/04 03:26:00;;;;;;;6.13;4.50;;;11.60;99.90;;;;;;5072134;28;20429;-77
2022/07/04 03:28:27;;;;;;;6.60;4.57;;;11.60;99.90;;;;;;5071023;28;20550;-77
2022/07/04 03:30:53;;;;;;;6.55;4.25;;;11.60;99.90;;;;;;5073110;28;20401;-76
2022/07/04 03:33:19;;;;;;;6.45;5.03;;;11.60;99.90;;;;;;5071977;28;20040;-76
2022/07/04 03:35:45;;;;;;;7.50;5.30;;;11.60;99.90;;;;;;5072861;28;20114;-77
2022/07/04 03:38:11;;;;;;;8.05;5.70;;;11.60;99.90;;;;;;5055219;28;20044;-76
2022/07/04 03:40:38;;;;;;;7.53;5.57;;;11.70;99.90;;;;;;5072809;28;20054;-76
2022/07/04 03:43:06;;;;;;;6.35;5.05;;;11.70;99.90;;;;;;5072928;28;20052;-76
2022/07/04 03:45:32;;;;;;;6.60;5.20;;;11.70;99.90;;;;;;5069960;28;20048;-77
2022/07/04 03:47:58;;;;;;;9.88;5.82;;;11.70;99.90;;;;;;5034271;28;20063;-76
2022/07/04 03:50:24;;;;;;;7.15;5.55;;;11.70;99.90;;;;;;5071481;28;20552;-76
2022/07/04 03:52:50;;;;;;;7.57;6.05;;;11.70;99.90;;;;;;5071334;28;20396;-76
2022/07/04 03:55:16;;;;;;;9.40;6.63;;;11.80;99.90;;;;;;5072621;28;20048;-76
2022/07/04 03:57:42;;;;;;;8.07;6.10;;;11.80;99.90;;;;;;5072517;28;20401;-76
2022/07/04 04:00:09;;;;;;;7.68;5.78;;;11.90;99.90;;;;;;5071965;28;20048;-76
2022/07/04 04:02:36;;;;;;;8.85;5.93;;;11.90;99.90;;;;;;5071089;28;20052;-76
2022/07/04 04:07:47;;;;;;;9.05;6.22;;;12.00;99.90;;;;;;5071381;28;20066;-77
2022/07/04 04:10:12;;;;;;;8.63;6.55;;;12.10;99.90;;;;;;5072247;28;20044;-76
2022/07/04 04:12:38;;;;;;;8.57;6.75;;;12.10;99.90;;;;;;5071066;28;20134;-77
2022/07/04 04:15:04;;;;;;;8.68;6.68;;;12.20;99.90;;;;;;5072266;28;20056;-76
2022/07/04 04:17:30;;;;;;;8.90;6.32;;;12.30;99.90;;;;;;5071023;28;20054;-76
2022/07/04 04:19:55;;;;;;;11.80;7.85;;;12.40;99.90;;;;;;5070653;28;20060;-76
2022/07/04 04:22:21;;;;;;;10.10;7.30;;;12.40;99.90;;;;;;5070892;28;20114;-76
2022/07/04 04:24:47;;;;;;;11.93;7.35;;;12.50;99.90;;;;;;5070802;28;20036;-76
2022/07/04 04:27:12;;;;;;;10.40;6.82;;;12.60;99.90;;;;;;5071941;28;20127;-76
2022/07/04 04:29:38;;;;;;;9.45;6.85;;;12.70;99.90;;;;;;5070353;28;20393;-76
2022/07/04 04:32:04;;;;;;;11.13;6.97;;;12.80;99.90;;;;;;5071902;28;20059;-77
2022/07/04 04:34:30;;;;;;;11.35;7.28;;;12.80;99.90;;;;;;5070709;28;20057;-75
2022/07/04 04:36:55;;;;;;;9.48;6.82;;;12.90;99.90;;;;;;5071840;28;20056;-77
2022/07/04 04:39:21;;;;;;;8.60;6.53;;;13.00;99.90;;;;;;5070775;28;20057;-76
2022/07/04 04:41:47;;;;;;;11.10;6.90;;;13.10;99.90;;;;;;5070332;28;20056;-77
2022/07/04 04:44:12;;;;;;;10.88;7.13;;;13.20;99.90;;;;;;5070759;28;20044;-76
2022/07/04 04:46:39;;;;;;;9.85;6.85;;;13.30;99.90;;;;;;5071702;28;20485;-76
2022/07/04 04:49:04;;;;;;;8.52;6.90;;;13.40;99.90;;;;;;5071413;28;20493;-76
2022/07/04 04:51:30;;;;;;;9.20;6.75;;;13.50;99.90;;;;;;5071523;28;20127;-79
2022/07/04 04:53:56;;;;;;;8.95;7.20;;;13.50;99.90;;;;;;5071360;28;20440;-76
2022/07/04 04:56:21;;;;;;;8.45;6.45;;;13.70;99.90;;;;;;5070179;28;20051;-76
2022/07/04 04:58:47;;;;;;;10.63;6.72;;;13.70;99.90;;;;;;5071040;28;20067;-76
2022/07/04 05:01:13;;;;;;;9.48;6.60;;;13.80;99.90;;;;;;5071446;28;20405;-75
2022/07/04 05:03:38;;;;;;;8.27;6.28;;;13.90;99.90;;;;;;5037147;28;20044;-77
2022/07/04 05:06:04;;;;;;;8.10;6.43;;;14.00;99.90;;;;;;5071514;28;20544;-76
2022/07/04 05:08:30;;;;;;;9.80;6.20;;;14.10;99.90;;;;;;5070296;28;20084;-77
2022/07/04 05:10:56;;;;;;;8.68;6.00;;;14.20;99.90;;;;;;5071364;28;20044;-75
2022/07/04 05:13:21;;;;;;;9.98;5.55;;;14.30;99.90;;;;;;5070059;28;20052;-79
2022/07/04 05:15:47;;;;;;;7.22;5.25;;;14.40;99.90;;;;;;5071418;28;20499;-75
2022/07/04 05:18:13;;;;;;;8.10;5.72;;;14.50;99.90;;;;;;5071230;28;20557;-76
2022/07/04 05:20:39;;;;;;;8.57;5.45;;;14.50;99.90;;;;;;5053597;28;20052;-76
2022/07/04 05:23:06;;;;;;;8.55;5.32;;;14.60;99.90;;;;;;5070104;28;20055;-76
2022/07/04 05:25:34;;;;;;;7.35;4.80;;;14.60;99.90;;;;;;5071104;28;20045;-75
2022/07/04 05:28:00;;;;;;;5.72;4.88;;;14.70;99.90;;;;;;5071175;28;20481;-75
2022/07/04 05:30:26;;;;;;;7.68;5.30;;;14.70;99.90;;;;;;5069000;28;20139;-76
2022/07/04 05:32:51;;;;;;;8.63;4.93;;;14.80;99.90;;;;;;5070875;28;20044;-76
2022/07/04 05:35:17;;;;;;;7.57;5.40;;;14.80;99.90;;;;;;5074691;28;20053;-76
2022/07/04 05:37:43;;;;;;;6.07;4.55;;;14.90;99.90;;;;;;5073993;28;20053;-76
2022/07/04 05:40:10;;;;;;;8.15;4.85;;;15.00;99.90;;;;;;5073776;28;20079;-76
2022/07/04 05:42:36;;;;;;;7.00;4.75;;;15.00;99.90;;;;;;5057164;28;20080;-75
2022/07/04 05:45:02;;;;;;;6.35;4.75;;;15.10;99.90;;;;;;5075197;28;20101;-76
2022/07/04 05:47:28;;;;;;;5.38;4.15;;;15.10;99.90;;;;;;5073690;28;20044;-76
2022/07/04 05:49:54;;;;;;;5.47;4.47;;;15.20;99.90;;;;;;5074640;28;20190;-75
2022/07/04 05:52:20;;;;;;;7.00;4.55;;;15.20;99.90;;;;;;5074798;28;20048;-77
2022/07/04 05:54:48;;;;;;;5.78;4.53;;;15.30;99.90;;;;;;5073500;28;20044;-75
2022/07/04 05:57:13;;;;;;;6.60;4.38;;;15.30;99.90;;;;;;5075030;28;20446;-76
2022/07/04 05:59:39;;;;;;;8.63;4.40;;;15.40;99.90;;;;;;5056447;28;20048;-77
2022/07/04 06:02:05;;;;;;;6.38;4.45;;;15.40;99.90;;;;;;5073762;28;20049;-75
2022/07/04 06:04:31;;;;;;;6.78;3.88;;;15.50;99.90;;;;;;5073682;28;20079;-75
2022/07/04 06:06:57;;;;;;;9.00;4.47;;;15.60;99.90;;;;;;5073685;28;20060;-76
2022/07/04 06:09:22;;;;;;;5.47;3.80;;;15.70;99.90;;;;;;5074583;28;20465;-75
2022/07/04 06:11:48;;;;;;;6.60;4.03;;;15.80;99.90;;;;;;5073314;28;20080;-75
2022/07/04 06:14:14;;;;;;;6.25;4.90;;;15.90;99.90;;;;;;5073430;28;20055;-75
2022/07/04 06:16:40;;;;;;;6.00;4.45;;;15.90;99.90;;;;;;5074426;28;20106;-77
2022/07/04 06:19:05;;;;;;;7.82;4.50;;;16.00;99.90;;;;;;5073259;28;20048;-75
2022/07/04 06:21:31;;;;;;;6.40;4.40;;;16.00;99.90;;;;;;5073286;28;20044;-75
2022/07/04 06:23:58;;;;;;;7.22;4.78;;;16.00;99.90;;;;;;5074324;28;20478;-75
2022/07/04 06:26:23;;;;;;;10.18;5.75;;;16.00;99.90;;;;;;5074270;28;20092;-75
2022/07/04 06:28:49;;;;;;;6.97;5.25;;;16.10;99.90;;;;;;5072231;28;20109;-76
2022/07/04 06:31:16;;;;;;;7.13;4.95;;;16.10;99.90;;;;;;5072991;28;20048;-78
2022/07/04 06:36:26;;;;;;;7.85;5.05;;;16.30;99.90;;;;;;5073117;28;20780;-74
2022/07/04 06:38:52;;;;;;;6.47;5.07;;;16.30;99.90;;;;;;5072335;28;20139;-76
2022/07/04 06:41:18;;;;;;;8.00;5.20;;;16.40;99.90;;;;;;5069943;28;20048;-69
2022/07/04 06:43:43;;;;;;;7.88;5.00;;;16.40;99.90;;;;;;5070813;28;20048;-69
2022/07/04 06:46:09;;;;;;;5.32;4.80;;;16.40;99.90;;;;;;5073950;28;20596;-68
2022/07/04 06:48:36;;;;;;;5.50;4.70;;;16.50;99.90;;;;;;5086212;28;20047;-68
2022/07/04 06:51:01;;;;;;;4.78;3.58;;;16.60;99.90;;;;;;5093727;28;20083;-69
2022/07/04 06:53:27;;;;;;;5.10;3.53;;;16.70;99.90;;;;;;5091788;28;20125;-68
2022/07/04 06:55:53;;;;;;;5.65;3.88;;;16.80;99.90;;;;;;5070398;28;20110;-69
2022/07/04 06:58:18;;;;;;;6.03;3.47;;;17.00;99.90;;;;;;5073483;28;20568;-69
2022/07/04 07:00:44;;;;;;;5.97;3.50;;;17.00;99.90;;;;;;5086570;28;20549;-69
2022/07/04 07:03:10;;;;;;;5.22;3.13;;;17.10;99.90;;;;;;5093367;28;20373;-69
2022/07/04 07:05:36;;;;;;;5.10;3.72;;;17.10;99.90;;;;;;5093750;28;20076;-69
2022/07/04 07:08:05;;;;;;;4.53;3.47;;;17.10;99.90;;;;;;5077393;28;20056;-69
2022/07/04 07:10:35;;;;;;;7.22;3.58;;;17.10;99.90;;;;;;5073344;28;20048;-68
2022/07/04 07:13:01;;;;;;;5.82;3.63;;;17.10;99.90;;;;;;5073272;28;20386;-69
2022/07/04 07:15:27;;;;;;;4.60;3.80;;;17.20;99.90;;;;;;5073180;28;20049;-69
2022/07/04 07:17:53;;;;;;;5.15;4.03;;;17.10;99.90;;;;;;5073058;28;20048;-69
2022/07/04 07:20:19;;;;;;;6.82;4.00;;;17.20;99.90;;;;;;5073241;28;20123;-69
2022/07/04 07:22:45;;;;;;;5.70;4.00;;;17.30;99.90;;;;;;5071365;28;20052;-69
2022/07/04 07:25:11;;;;;;;7.32;4.47;;;17.40;99.90;;;;;;5073031;28;20424;-69
2022/07/04 07:27:37;;;;;;;7.72;3.78;;;17.50;99.90;;;;;;5063603;28;20056;-68
2022/07/04 07:30:04;;;;;;;7.03;3.75;;;17.60;99.90;;;;;;5067588;28;20401;-68
2022/07/04 07:32:29;;;;;;;6.75;4.13;;;17.60;99.90;;;;;;5072648;28;20127;-68
2022/07/04 07:34:55;;;;;;;6.30;3.70;;;17.70;99.90;;;;;;5070870;28;20485;-69
2022/07/04 07:37:22;;;;;;;5.43;3.10;;;17.70;99.90;;;;;;5072767;28;20044;-71
2022/07/04 07:39:48;;;;;;;5.60;3.40;;;17.80;99.90;;;;;;5071514;28;20048;-70
2022/07/04 07:42:14;;;;;;;5.60;3.28;;;17.90;99.90;;;;;;5070305;28;20059;-69
2022/07/04 07:44:40;;;;;;;6.43;3.30;;;18.00;99.90;;;;;;5070430;28;20053;-68
2022/07/04 07:47:05;;;;;;;6.22;3.33;;;18.10;99.90;;;;;;5069871;28;20101;-67
2022/07/04 07:49:31;;;;;;;5.90;3.67;;;18.10;99.90;;;;;;5072211;28;20059;-69
2022/07/04 07:51:57;;;;;;;5.72;3.60;;;18.10;99.90;;;;;;5072272;28;20063;-69
2022/07/04 07:54:24;;;;;;;5.70;3.83;;;18.10;99.90;;;;;;5070336;28;20397;-69
2022/07/04 07:56:50;;;;;;;6.65;4.10;;;18.20;99.90;;;;;;5071536;28;20060;-69
2022/07/04 07:59:16;;;;;;;7.13;3.90;;;18.30;99.90;;;;;;5071768;28;20045;-68
2022/07/04 08:01:42;;;;;;;6.00;3.97;;;18.30;99.90;;;;;;5072102;28;20102;-68
2022/07/04 08:06:52;;;;;;;6.80;4.68;;;18.10;99.90;;;;;;5070823;28;20056;-68
2022/07/04 08:09:17;;;;;;;6.38;4.10;;;18.00;99.90;;;;;;5072013;28;20051;-68
2022/07/04 08:11:43;;;;;;;6.40;3.70;;;18.10;99.90;;;;;;5071662;28;20040;-68
2022/07/04 08:14:09;;;;;;;5.78;3.80;;;18.20;99.90;;;;;;5070763;28;20098;-69
2022/07/04 08:16:34;;;;;;;7.25;3.65;;;18.30;99.90;;;;;;5070891;28;20055;-68
2022/07/04 08:19:02;;;;;;;5.72;3.45;;;18.10;99.90;;;;;;5071539;28;20059;-68
2022/07/04 08:21:27;;;;;;;4.18;3.50;;;18.10;99.90;;;;;;5070506;28;20048;-68
2022/07/04 08:23:53;;;;;;;5.25;3.13;;;18.20;99.90;;;;;;5070911;28;20044;-69
2022/07/04 08:26:19;;;;;;;4.38;3.00;;;18.40;99.90;;;;;;5070121;28;20131;-69
2022/07/04 08:28:45;;;;;;;5.72;3.50;;;18.50;99.90;;;;;;5071033;28;20052;-68
2022/07/04 08:31:11;;;;;;;4.72;3.25;;;18.50;99.90;;;;;;5070678;28;20400;-69
2022/07/04 08:33:37;;;;;;;6.28;3.30;;;18.40;99.90;;;;;;5071082;28;20037;-69
2022/07/04 08:36:03;;;;;;;5.90;3.85;;;18.50;99.90;;;;;;5071418;28;20078;-68
2022/07/04 08:38:29;;;;;;;6.47;3.40;;;18.60;99.90;;;;;;5071467;28;20055;-68
2022/07/04 08:41:02;;;;;;;4.57;3.20;;;18.60;99.90;;;;;;5068621;28;20048;-68
2022/07/04 08:43:32;;;;;;;6.32;3.67;;;18.50;99.90;;;;;;5068886;28;20448;-68
2022/07/04 08:46:00;;;;;;;4.70;3.05;;;18.30;99.90;;;;;;5069693;28;20044;-69
2022/07/04 08:48:26;;;;;;;5.28;3.60;;;18.10;99.90;;;;;;5071060;28;20079;-68
2022/07/04 08:50:59;;;;;;;4.85;2.97;;;18.20;99.90;;;;;;5071194;28;20053;-68
2022/07/04 08:53:30;;;;;;;4.88;3.30;;;18.30;99.90;;;;;;5071243;28;20098;-67
2022/07/04 08:58:45;;;;;;;5.50;2.50;;;18.90;99.90;;;;;;5070652;28;20056;-67
2022/07/04 09:01:14;;;;;;;5.13;2.85;;;19.20;99.90;;;;;;5071149;28;20083;-68
2022/07/04 09:03:43;;;;;;;4.40;3.03;;;19.20;99.90;;;;;;5052482;28;20054;-68
2022/07/04 09:06:10;;;;;;;4.22;2.50;;;19.00;99.90;;;;;;5070068;28;20151;-67
2022/07/04 09:08:37;;;;;;;5.25;2.85;;;18.80;99.90;;;;;;5070110;28;20138;-68
2022/07/04 09:11:03;;;;;;;4.65;3.08;;;18.80;99.90;;;;;;5070618;28;20057;-68
2022/07/04 09:13:30;;;;;;;5.40;2.75;;;18.80;99.90;;;;;;5069705;28;20056;-67
2022/07/04 09:15:56;;;;;;;6.65;2.75;;;19.00;99.90;;;;;;5070822;28;20087;-69
2022/07/04 09:18:40;;;;;;;4.85;2.40;;;19.20;99.90;;;;;;5070591;28;20076;-68
2022/07/04 09:21:09;;;;;;;5.90;2.50;;;19.40;99.90;;;;;;5052587;28;20067;-68
2022/07/04 09:23:42;;;;;;;4.28;2.60;;;19.50;99.90;;;;;;5070214;28;20095;-68
2022/07/04 09:26:15;;;;;;;4.40;2.53;;;19.60;99.90;;;;;;5069451;28;20547;-67
2022/07/04 09:28:44;;;;;;;4.75;2.53;;;19.70;99.90;;;;;;5070197;28;20126;-68
2022/07/04 09:31:21;;;;;;;5.90;2.42;;;19.70;99.90;;;;;;5070946;28;20082;-68
2022/07/04 09:33:53;;;;;;;4.78;2.10;;;19.50;99.90;;;;;;5081025;28;20048;-68
2022/07/04 09:36:29;;;;;;;7.15;2.70;;;19.40;99.90;;;;;;5090867;28;20036;-68
2022/07/04 09:39:20;;;;;;;6.47;1.97;;;19.20;99.90;;;;;;5089855;28;20056;-69
2022/07/04 09:42:01;;;;;;;5.43;2.08;;;19.00;99.90;;;;;;5080228;28;20098;-68
2022/07/04 09:44:36;;;;;;;3.53;1.60;;;18.90;99.90;;;;;;5070636;28;20048;-68
2022/07/04 09:47:27;;;;;;;2.92;1.38;;;18.90;99.90;;;;;;5069478;28;20044;-68
2022/07/04 09:50:01;;;;;;;2.45;1.40;;;19.00;99.90;;;;;;5070892;28;20049;-67
2022/07/04 09:52:29;;;;;;;3.30;1.60;;;19.00;99.90;;;;;;5070345;28;20138;-68
2022/07/04 09:55:02;;;;;;;3.55;1.75;;;19.30;99.90;;;;;;5070127;28;20049;-67
2022/07/04 09:57:30;;;;;;;3.65;1.40;;;19.60;99.90;;;;;;5070654;28;20120;-69
2022/07/04 09:59:56;;;;;;;4.78;1.50;;;19.70;99.90;;;;;;5069976;28;20087;-68
2022/07/04 10:02:21;;;;;;;4.15;1.40;;;19.60;99.90;;;;;;5070232;28;20087;-68
2022/07/04 10:04:48;;;;;;;2.90;1.10;;;19.50;99.90;;;;;;5070433;28;20060;-69
2022/07/04 10:07:43;;;;;;;2.42;1.00;;;19.40;99.90;;;;;;5070391;28;20090;-68
2022/07/04 10:10:30;;;;;;;2.20;1.10;;;19.20;99.90;;;;;;5069065;28;20056;-68
2022/07/04 10:13:02;;;;;;;3.22;1.23;;;19.10;99.90;;;;;;5070450;28;20055;-69
2022/07/04 10:15:28;;;;;;;2.05;1.08;;;19.10;99.90;;;;;;5068873;28;20048;-68
2022/07/04 10:17:54;;;;;;;2.80;1.27;;;19.00;99.90;;;;;;5069671;28;20052;-67
2022/07/04 10:20:20;;;;;;;2.63;1.20;;;19.10;99.90;;;;;;5072257;28;20044;-68
2022/07/04 10:22:46;;;;;;;3.42;1.30;;;19.20;99.90;;;;;;5073974;28;20435;-67
2022/07/04 10:25:12;;;;;;;3.28;1.33;;;19.30;99.90;;;;;;5071836;28;20056;-68
2022/07/04 10:27:40;;;;;;;4.80;1.40;;;19.50;99.90;;;;;;5056216;28;20059;-69
2022/07/04 10:30:10;;;;;;;3.22;1.33;;;19.60;99.90;;;;;;5073280;28;20048;-69
2022/07/04 10:32:37;;;;;;;3.13;1.50;;;19.90;99.90;;;;;;5073952;28;20127;-68
2022/07/04 10:35:04;;;;;;;3.92;1.48;;;20.10;99.90;;;;;;5074029;28;20048;-68
2022/07/04 10:37:58;;;;;;;4.45;1.50;;;20.30;99.90;;;;;;5074155;28;20118;-68
2022/07/04 10:40:50;;;;;;;4.88;1.40;;;20.40;99.90;;;;;;5073961;28;20083;-68
2022/07/04 10:43:30;;;;;;;2.35;1.00;;;20.60;99.90;;;;;;5053925;28;20092;-69
2022/07/04 10:45:56;;;;;;;2.70;1.20;;;20.70;99.90;;;;;;5052343;28;20064;-69
2022/07/04 10:48:23;;;;;;;3.78;1.70;;;20.70;99.90;;;;;;5053458;28;20040;-68
2022/07/04 10:51:03;;;;;;;3.67;1.30;;;20.60;99.90;;;;;;5053682;28;20123;-69
2022/07/04 10:53:31;;;;;;;4.53;1.42;;;20.60;99.90;;;;;;5054783;28;20061;-68
2022/07/04 10:56:20;;;;;;;2.55;1.20;;;20.60;99.90;;;;;;5073224;28;20547;-68
2022/07/04 10:58:46;;;;;;;1.92;1.00;;;20.70;99.90;;;;;;5069377;28;20052;-71
2022/07/04 11:01:13;;;;;;;2.00;1.05;;;20.70;99.90;;;;;;5072048;28;20044;-68
2022/07/04 11:03:49;;;;;;;2.78;1.08;;;20.60;99.90;;;;;;5072062;28;20165;-68
2022/07/04 11:06:44;;;;;;;1.80;0.90;;;20.60;99.90;;;;;;5072135;28;20056;-68
2022/07/04 11:09:12;;;;;;;3.25;1.20;;;20.50;99.90;;;;;;5070411;28;20186;-69
2022/07/04 11:12:00;;;;;;;3.67;1.00;;;20.40;99.90;;;;;;5071750;28;20118;-69
2022/07/04 11:14:38;;;;;;;2.63;1.30;;;20.50;99.90;;;;;;5073093;28;20409;-70
2022/07/04 11:17:05;;;;;;;3.15;1.08;;;20.50;99.90;;;;;;5072883;28;20053;-68
2022/07/04 11:19:31;;;;;;;2.78;1.02;;;20.40;99.90;;;;;;5072745;28;20044;-69
2022/07/04 11:21:57;;;;;;;2.97;1.10;;;20.40;99.90;;;;;;5072873;28;20162;-70
2022/07/04 11:24:24;;;;;;;4.55;1.30;;;20.50;99.90;;;;;;5071797;28;20059;-69
2022/07/04 11:26:50;;;;;;;2.13;1.10;;;20.60;99.90;;;;;;5072489;28;20052;-68
2022/07/04 11:29:16;;;;;;;1.83;0.80;;;20.80;99.90;;;;;;5070981;28;20095;-69
2022/07/04 11:31:47;;;;;;;1.88;1.08;;;20.90;99.90;;;;;;5054322;28;20041;-69
2022/07/04 11:34:14;;;;;;;2.42;1.20;;;20.90;99.90;;;;;;5072580;28;20402;-69
2022/07/04 11:36:45;;;;;;;2.72;1.05;;;20.90;99.90;;;;;;5071258;28;20056;-69
2022/07/04 11:39:13;;;;;;;1.85;1.00;;;20.90;99.90;;;;;;5071442;28;20056;-70
2022/07/04 11:47:39;;;;;;;1.90;1.00;;;21.00;99.90;;;;;;5072488;28;20075;-67
2022/07/04 11:50:11;;;;;;;2.35;1.02;;;21.10;99.90;;;;;;5072251;28;20052;-68
2022/07/04 11:52:37;;;;;;;2.42;1.10;;;21.30;99.90;;;;;;5072172;28;20064;-68
2022/07/04 11:55:11;;;;;;;2.60;1.30;;;21.40;99.90;;;;;;5071721;28;20080;-69
2022/07/04 11:57:41;;;;;;;3.35;1.60;;;21.30;99.90;;;;;;5071742;28;20417;-68
2022/07/04 12:00:13;;;;;;;2.95;1.38;;;21.10;99.90;;;;;;5071517;28;20070;-68
2022/07/04 12:02:40;;;;;;;2.50;1.30;;;21.00;99.90;;;;;;5072193;28;20499;-68
2022/07/04 12:05:10;;;;;;;4.32;1.40;;;21.00;99.90;;;;;;5071599;28;20497;-68
2022/07/04 12:07:41;;;;;;;2.13;1.40;;;21.10;99.90;;;;;;5071609;28;20044;-68
2022/07/04 12:10:21;;;;;;;3.13;1.40;;;21.20;99.90;;;;;;5070931;28;20048;-68
2022/07/04 12:13:06;;;;;;;3.45;1.15;;;21.10;99.90;;;;;;5070384;28;20501;-69
2022/07/04 12:15:44;;;;;;;2.55;1.10;;;21.00;99.90;;;;;;5071826;28;20051;-69
2022/07/04 12:18:24;;;;;;;2.63;0.90;;;21.10;99.90;;;;;;5071186;28;20059;-68
2022/07/04 12:20:52;;;;;;;2.65;0.90;;;21.10;99.90;;;;;;5080641;28;20051;-69
2022/07/04 12:23:22;;;;;;;2.55;0.93;;;20.90;99.90;;;;;;5070345;28;20051;-69
2022/07/04 12:25:51;;;;;;;2.35;1.08;;;20.80;99.90;;;;;;5070100;28;20171;-68
2022/07/04 12:28:18;;;;;;;5.03;1.00;;;20.90;99.90;;;;;;5070948;28;20723;-70
2022/07/04 12:30:58;;;;;;;3.42;1.00;;;20.90;99.90;;;;;;5071114;28;20480;-70
2022/07/04 12:33:26;;;;;;;2.65;1.00;;;21.00;99.90;;;;;;5070728;28;20549;-68
2022/07/04 12:36:00;;;;;;;2.35;0.98;;;21.20;99.90;;;;;;5071585;28;20047;-68
2022/07/04 12:38:29;;;;;;;3.63;0.90;;;21.30;99.90;;;;;;5071000;28;20056;-69
2022/07/04 12:40:56;;;;;;;1.75;0.77;;;21.20;99.90;;;;;;5070362;28;20048;-69
2022/07/04 12:43:25;;;;;;;1.50;0.80;;;21.00;99.90;;;;;;5071099;28;20058;-69
2022/07/04 12:45:56;;;;;;;1.88;0.90;;;21.00;99.90;;;;;;5071383;28;20093;-68
2022/07/04 12:48:27;;;;;;;2.10;0.90;;;21.00;99.90;;;;;;5070437;28;20400;-69
2022/07/04 12:50:55;;;;;;;2.08;0.85;;;21.20;99.90;;;;;;5071267;28;20056;-69
2022/07/04 12:53:21;;;;;;;3.05;0.88;;;21.30;99.90;;;;;;5070701;28;20057;-68
2022/07/04 12:55:49;;;;;;;1.88;1.00;;;21.50;99.90;;;;;;5070523;28;20040;-68
2022/07/04 12:58:15;;;;;;;2.03;0.80;;;21.60;99.90;;;;;;5069307;28;20055;-68
2022/07/04 13:00:41;;;;;;;1.85;0.70;;;21.60;99.90;;;;;;5070757;28;20055;-68
2022/07/04 13:03:07;;;;;;;1.52;0.80;;;21.60;99.90;;;;;;5070683;28;20044;-68
2022/07/04 13:05:35;;;;;;;1.73;0.88;;;21.50;99.90;;;;;;5070962;28;20430;-68
2022/07/04 13:08:02;;;;;;;2.90;1.00;;;21.50;99.90;;;;;;5070986;28;20056;-68
2022/07/04 13:10:28;;;;;;;2.20;0.93;;;21.50;99.90;;;;;;5069444;28;20528;-68